New Paris, Indiana
Current Conditions -  °F | °C
As of 9:53 PM on Sunday 23 Nov 2014 (Local Time) from KGSH Reporting Station
Light Rain Light Rain  
Wind Chill: 14°   Ceiling: 700
Heat Index: 14°   Visibility: 4mi
Dew Point:   Wind: 10mph
Humidity: 72%   Direction: 130°SE
Pressure: 29.25"   Gusts: NA
Location:  41.5°N, 85.83°W
Report Text: KGSH 240253Z AUTO 13009KT 4SM -RA BKN007 BKN029 OVC035 14/09 A2925 RMK AO2 PRESFR SLP903 P0013 60059 T01390089 58048
Loading
Personal Weather Stations






























Interactive Weather Map New forecast layout! Learn more

10-Day Weather Forecast

Advertisements
Track Severe Weather on mobile